Holmesville, Ohio
Current Conditions -  °F | °C
As of 3:56 AM on Sunday 26 Oct 2014 (Local Time) from KBJJ Reporting Station
Clear Clear  
Wind Chill: 51°   Ceiling: Unl
Heat Index: 51°   Visibility: 10mi
Dew Point: 32°   Wind: 10mph
Humidity: 48%   Direction: 310°NW
Pressure: 29.85"   Gusts: NA
Location:  40.63°N, 81.92°W
Report Text: KBJJ 260756Z AUTO 31009KT 10SM CLR 11/00 A2985 RMK AO2 SLP107 T01060000 TSNO
Loading
Personal Weather Stations






























Interactive Weather Map
Tropical Storm Tracking
New forecast layout! Learn more

10-Day Weather Forecast

Advertisements
Track Severe Weather on mobile